Ashland, Ohio
Current Conditions -  °F | °C
As of 8:52 AM on Saturday 25 Oct 2014 (Local Time) from KMFD Reporting Station
Overcast Overcast  
Wind Chill: 54°   Ceiling: 7000
Heat Index: 54°   Visibility: 9mi
Dew Point: 50°   Wind: 9mph
Humidity: 86%   Direction: 210°SSW
Pressure: 29.93"   Gusts: NA
Location:  40.87°N, 82.31°W
Report Text: KMFD 251252Z 21008KT 9SM OVC070 12/10 A2993 RMK AO2 SLP136 T01220100
Loading
Personal Weather Stations






























Interactive Weather Map
Tropical Storm Tracking
New forecast layout! Learn more

10-Day Weather Forecast

Advertisements
Track Severe Weather on mobile